createdAt,value
2023-01-19T00:00:18.338Z,-8.31
2023-01-19T00:03:17.959Z,-8.55
2023-01-19T00:06:14.819Z,-8.58
2023-01-19T00:09:11.600Z,-8.47
2023-01-19T00:12:09.159Z,-8.49
2023-01-19T00:15:06.506Z,-8.21
2023-01-19T00:18:03.404Z,-8.43
2023-01-19T00:21:00.212Z,-8.75
2023-01-19T00:23:57.029Z,-8.72
2023-01-19T00:26:53.838Z,-8.83
2023-01-19T00:29:50.575Z,-8.73
2023-01-19T00:32:47.328Z,-8.57
2023-01-19T00:35:44.328Z,-8.74
2023-01-19T00:38:41.058Z,-8.58
2023-01-19T00:41:56.396Z,-8.36
2023-01-19T00:44:53.137Z,-8.75
2023-01-19T00:47:56.993Z,-8.85
2023-01-19T00:50:53.799Z,-8.56
2023-01-19T00:53:50.645Z,-8.71
2023-01-19T00:56:47.392Z,-8.47
2023-01-19T00:59:44.168Z,-8.56
2023-01-19T01:02:42.272Z,-8.75
2023-01-19T01:05:41.325Z,-8.82
2023-01-19T01:08:38.179Z,-8.98
2023-01-19T01:11:34.925Z,-8.92
2023-01-19T01:14:31.666Z,-8.87
2023-01-19T01:17:28.426Z,-8.68
2023-01-19T01:20:28.033Z,-8.54
2023-01-19T01:23:24.958Z,-8.45
2023-01-19T01:26:21.879Z,-8.51
2023-01-19T01:29:18.642Z,-8.64
2023-01-19T01:32:15.818Z,-8.92
2023-01-19T01:35:13.503Z,-8.88
2023-01-19T01:38:10.333Z,-9.11
2023-01-19T01:41:07.853Z,-8.88
2023-01-19T01:44:49.472Z,-8.88
2023-01-19T01:47:48.603Z,-8.86
2023-01-19T01:51:11.028Z,-8.78
2023-01-19T01:54:17.245Z,-8.86
2023-01-19T01:57:14.271Z,-9.01
2023-01-19T02:00:11.322Z,-9.02
2023-01-19T02:03:08.091Z,-8.60
2023-01-19T02:06:07.181Z,-8.81
2023-01-19T02:09:27.244Z,-9.02
2023-01-19T02:12:42.601Z,-8.97
2023-01-19T02:15:39.344Z,-8.85
2023-01-19T02:18:36.497Z,-8.84
2023-01-19T02:21:45.165Z,-8.68
2023-01-19T02:24:42.750Z,-8.55
2023-01-19T02:27:39.573Z,-8.70
2023-01-19T02:30:37.221Z,-8.70
2023-01-19T02:33:34.054Z,-8.45
2023-01-19T02:36:42.212Z,-8.42
2023-01-19T02:40:04.464Z,-8.39
2023-01-19T02:43:03.345Z,-8.41
2023-01-19T02:46:00.352Z,-8.52
2023-01-19T02:49:00.524Z,-8.10
2023-01-19T02:51:58.561Z,-8.00
2023-01-19T02:55:19.840Z,-8.09
2023-01-19T02:58:26.950Z,-8.14
2023-01-19T03:01:34.298Z,-8.33
2023-01-19T03:04:44.974Z,-8.25
2023-01-19T03:08:06.435Z,-8.04
2023-01-19T03:11:09.278Z,-8.18
2023-01-19T03:14:10.997Z,-8.20
2023-01-19T03:17:09.658Z,-8.11
2023-01-19T03:20:07.834Z,-7.96
2023-01-19T03:23:08.235Z,-7.96
2023-01-19T03:26:08.451Z,-8.03
2023-01-19T03:29:06.903Z,-8.19
2023-01-19T03:32:07.352Z,-8.00
2023-01-19T03:35:09.370Z,-7.82
2023-01-19T03:38:11.944Z,-7.88
2023-01-19T03:41:13.224Z,-7.83
2023-01-19T03:44:11.663Z,-7.80
2023-01-19T03:47:09.848Z,-7.62
2023-01-19T03:50:09.142Z,-7.77
2023-01-19T03:53:14.469Z,-7.67
2023-01-19T03:56:22.728Z,-7.72
2023-01-19T03:59:20.051Z,-7.59
2023-01-19T04:02:16.977Z,-7.49
2023-01-19T04:05:14.470Z,-7.60
2023-01-19T04:08:11.948Z,-7.55
2023-01-19T04:11:08.844Z,-7.65
2023-01-19T04:14:05.616Z,-7.53
2023-01-19T04:17:02.386Z,-7.51
2023-01-19T04:20:00.331Z,-7.71
2023-01-19T04:23:01.653Z,-7.57
2023-01-19T04:25:59.622Z,-7.52
2023-01-19T04:28:56.502Z,-7.32
2023-01-19T04:31:53.342Z,-7.16
2023-01-19T04:34:50.458Z,-7.06
2023-01-19T04:37:47.347Z,-6.98
2023-01-19T04:40:44.146Z,-7.04
2023-01-19T04:43:40.942Z,-6.98
2023-01-19T04:46:37.796Z,-6.77
2023-01-19T04:49:37.599Z,-6.68
2023-01-19T04:52:35.193Z,-6.53
2023-01-19T04:55:31.951Z,-6.38
2023-01-19T04:58:28.717Z,-6.28
2023-01-19T05:01:25.636Z,-6.18
2023-01-19T05:04:22.462Z,-6.11
2023-01-19T05:07:19.266Z,-5.97
2023-01-19T05:10:16.293Z,-5.93
2023-01-19T05:13:14.088Z,-5.93
2023-01-19T05:16:11.120Z,-5.80
2023-01-19T05:19:08.008Z,-5.80
2023-01-19T05:22:05.630Z,-5.77
2023-01-19T05:25:02.386Z,-5.58
2023-01-19T05:27:59.154Z,-5.70
2023-01-19T05:30:56.007Z,-5.64
2023-01-19T05:33:52.860Z,-5.58
2023-01-19T05:36:49.731Z,-5.50
2023-01-19T05:39:46.483Z,-5.56
2023-01-19T05:42:43.255Z,-5.47
2023-01-19T05:45:41.073Z,-5.43
2023-01-19T05:48:38.400Z,-5.34
2023-01-19T05:51:38.414Z,-5.47
2023-01-19T05:54:35.168Z,-5.33
2023-01-19T05:57:31.937Z,-5.15
2023-01-19T06:00:29.123Z,-5.09
2023-01-19T06:03:26.009Z,-5.16
2023-01-19T06:06:22.845Z,-5.14
2023-01-19T06:09:19.601Z,-5.11
2023-01-19T06:12:16.377Z,-5.10
2023-01-19T06:15:14.440Z,-4.95
2023-01-19T06:18:12.592Z,-5.03
2023-01-19T06:21:12.309Z,-4.99
2023-01-19T06:24:09.971Z,-5.06
2023-01-19T06:27:06.890Z,-4.97
2023-01-19T06:30:04.601Z,-4.94
2023-01-19T06:33:01.764Z,-4.85
2023-01-19T06:35:58.815Z,-4.83
2023-01-19T06:38:55.573Z,-4.74
2023-01-19T06:41:52.345Z,-4.81
2023-01-19T06:44:49.284Z,-4.69
2023-01-19T06:47:47.828Z,-4.84
2023-01-19T06:50:45.679Z,-4.88
2023-01-19T06:53:42.446Z,-4.81
2023-01-19T06:56:39.222Z,-4.77
2023-01-19T06:59:36.026Z,-4.82
2023-01-19T07:02:32.919Z,-4.84
2023-01-19T07:05:29.836Z,-4.81
2023-01-19T07:08:27.020Z,-4.66
2023-01-19T07:11:31.466Z,-4.75
2023-01-19T07:14:33.504Z,-4.75
2023-01-19T07:17:30.389Z,-4.69
2023-01-19T07:20:27.149Z,-4.79
2023-01-19T07:23:24.063Z,-4.78
2023-01-19T07:26:21.751Z,-4.77
2023-01-19T07:29:18.739Z,-4.64
2023-01-19T07:32:15.495Z,-4.74
2023-01-19T07:35:12.287Z,-4.74
2023-01-19T07:38:09.198Z,-4.70
2023-01-19T07:41:07.732Z,-4.58
2023-01-19T07:44:04.682Z,-4.57
2023-01-19T07:47:01.442Z,-4.59
2023-01-19T07:49:58.230Z,-4.46
2023-01-19T07:52:55.934Z,-4.47
2023-01-19T07:55:56.699Z,-4.50
2023-01-19T07:58:53.625Z,-4.45
2023-01-19T08:01:50.511Z,-4.35
2023-01-19T08:04:48.185Z,-4.45
2023-01-19T08:07:46.254Z,-4.28
2023-01-19T08:10:43.035Z,-4.39
2023-01-19T08:13:39.801Z,-4.37
2023-01-19T08:16:36.988Z,-4.30
2023-01-19T08:19:33.760Z,-4.26
2023-01-19T08:22:30.556Z,-4.32
2023-01-19T08:25:33.082Z,-4.26
2023-01-19T08:28:32.133Z,-4.27
2023-01-19T08:31:29.245Z,-4.12
2023-01-19T08:34:26.137Z,-4.18
2023-01-19T08:37:22.885Z,-4.23
2023-01-19T08:40:20.240Z,-4.26
2023-01-19T08:43:17.588Z,-4.22
2023-01-19T08:46:18.530Z,-4.17
2023-01-19T08:49:15.833Z,-4.13
2023-01-19T08:52:12.619Z,-4.05
2023-01-19T08:55:11.206Z,-4.05
2023-01-19T08:58:11.060Z,-3.93
2023-01-19T09:01:08.883Z,-4.09
2023-01-19T09:04:06.196Z,-4.05
2023-01-19T09:07:03.065Z,-4.02
2023-01-19T09:09:59.853Z,-3.90
2023-01-19T09:12:57.165Z,-3.95
2023-01-19T09:15:54.286Z,-3.83
2023-01-19T09:18:51.100Z,-3.86
2023-01-19T09:21:47.845Z,-3.89
2023-01-19T09:24:44.636Z,-3.86
2023-01-19T09:27:41.401Z,-3.74
2023-01-19T09:30:39.811Z,-3.63
2023-01-19T09:33:36.577Z,-3.54
2023-01-19T09:36:33.328Z,-3.42
2023-01-19T09:39:30.073Z,-3.56
2023-01-19T09:42:46.201Z,-3.50
2023-01-19T09:45:48.629Z,-3.50
2023-01-19T09:48:52.973Z,-3.58
2023-01-19T09:51:50.934Z,-3.52
2023-01-19T09:54:53.581Z,-3.33
2023-01-19T09:57:50.342Z,-3.33
2023-01-19T10:00:52.728Z,-3.32
2023-01-19T10:03:53.541Z,-3.35
2023-01-19T10:06:52.492Z,-3.32
2023-01-19T10:10:04.566Z,-3.32
2023-01-19T10:13:11.556Z,-3.42
2023-01-19T10:16:34.822Z,-3.40
2023-01-19T10:19:40.363Z,-3.30
2023-01-19T10:22:37.550Z,-3.09
2023-01-19T10:25:34.456Z,-3.17
2023-01-19T10:28:31.873Z,-3.19
2023-01-19T10:31:28.889Z,-2.82
2023-01-19T10:34:25.793Z,-2.79
2023-01-19T10:37:37.757Z,-2.67
2023-01-19T10:40:39.847Z,-2.77
2023-01-19T10:43:45.050Z,-2.41
2023-01-19T10:46:47.182Z,-2.68
2023-01-19T10:49:44.908Z,-2.55
2023-01-19T10:52:44.705Z,-2.55
2023-01-19T10:55:41.581Z,-2.44
2023-01-19T10:58:40.336Z,-2.43
2023-01-19T11:01:38.084Z,-2.48
2023-01-19T11:04:35.004Z,-2.39
2023-01-19T11:07:33.605Z,-2.38
2023-01-19T11:10:30.440Z,-2.58
2023-01-19T11:13:27.218Z,-2.59
2023-01-19T11:16:31.214Z,-2.63
2023-01-19T11:19:31.136Z,-2.71
2023-01-19T11:22:34.328Z,-2.70
2023-01-19T11:25:33.394Z,-2.52
2023-01-19T11:28:42.016Z,-2.56
2023-01-19T11:31:40.427Z,-2.78
2023-01-19T11:34:38.690Z,-2.53
2023-01-19T11:37:35.815Z,-2.73
2023-01-19T11:40:33.745Z,-2.60
2023-01-19T11:43:43.492Z,-2.65
2023-01-19T11:46:48.560Z,-2.72
2023-01-19T11:50:04.918Z,-2.48
2023-01-19T11:53:15.091Z,-2.44
2023-01-19T11:56:14.043Z,-2.38
2023-01-19T11:59:12.456Z,-2.19
2023-01-19T12:02:28.367Z,-2.45
2023-01-19T12:05:27.177Z,-2.51
2023-01-19T12:08:50.053Z,-2.27
2023-01-19T12:12:01.615Z,-2.23
2023-01-19T12:15:06.330Z,-2.09
2023-01-19T12:18:05.833Z,-2.19
2023-01-19T12:21:04.211Z,-2.44
2023-01-19T12:24:16.408Z,-2.47
2023-01-19T12:27:39.718Z,-2.42
2023-01-19T12:30:36.583Z,-2.32
2023-01-19T12:33:36.811Z,-2.38
2023-01-19T12:36:36.811Z,-2.44
2023-01-19T12:39:35.384Z,-2.25
2023-01-19T12:42:33.503Z,-2.40
2023-01-19T12:45:34.057Z,-2.36
2023-01-19T12:48:32.132Z,-2.39
2023-01-19T12:51:30.946Z,-2.45
2023-01-19T12:54:34.250Z,-2.21
2023-01-19T12:57:48.550Z,-2.35
2023-01-19T13:00:46.932Z,-2.40
2023-01-19T13:03:46.009Z,-2.45
2023-01-19T13:06:48.663Z,-2.37
2023-01-19T13:09:45.505Z,-2.36
2023-01-19T13:13:18.204Z,-2.23
2023-01-19T13:16:18.136Z,-2.23
2023-01-19T13:19:18.195Z,-2.22
2023-01-19T13:22:54.077Z,-2.21
2023-01-19T13:26:12.721Z,-2.14
2023-01-19T13:29:28.323Z,-2.14
2023-01-19T13:32:25.688Z,-2.07
2023-01-19T13:35:22.647Z,-2.13
2023-01-19T13:38:19.845Z,-2.05
2023-01-19T13:41:18.753Z,-2.03
2023-01-19T13:44:32.689Z,-2.07
2023-01-19T13:47:48.980Z,-2.02
2023-01-19T13:51:17.702Z,-2.10
2023-01-19T13:54:15.971Z,-2.02
2023-01-19T13:57:31.555Z,-1.95
2023-01-19T14:00:30.946Z,-2.12
2023-01-19T14:03:27.889Z,-2.04
2023-01-19T14:06:36.383Z,-2.02
2023-01-19T14:09:33.204Z,-2.06
2023-01-19T14:12:30.104Z,-1.91
2023-01-19T14:15:28.552Z,-2.10
2023-01-19T14:18:30.738Z,-2.11
2023-01-19T14:21:38.130Z,-2.12
2023-01-19T14:24:34.908Z,-2.09
2023-01-19T14:27:31.677Z,-2.16
2023-01-19T14:30:28.542Z,-2.12
2023-01-19T14:33:34.717Z,-2.25
2023-01-19T14:36:38.098Z,-2.14
2023-01-19T14:39:35.820Z,-2.13
2023-01-19T14:42:35.808Z,-2.09
2023-01-19T14:45:36.976Z,-2.07
2023-01-19T14:48:33.785Z,-1.96
2023-01-19T14:51:31.160Z,-2.03
2023-01-19T14:54:38.327Z,-1.93
2023-01-19T14:57:36.445Z,-1.98
2023-01-19T15:00:33.216Z,-1.96
2023-01-19T15:03:43.522Z,-2.03
2023-01-19T15:06:45.805Z,-2.01
2023-01-19T15:09:42.562Z,-1.97
2023-01-19T15:12:39.329Z,-1.97
2023-01-19T15:15:36.563Z,-1.98
2023-01-19T15:18:33.324Z,-2.00
2023-01-19T15:21:30.104Z,-1.94
2023-01-19T15:24:26.851Z,-2.02
2023-01-19T15:27:23.629Z,-1.97
2023-01-19T15:30:25.182Z,-1.91
2023-01-19T15:33:23.737Z,-1.96
2023-01-19T15:36:22.230Z,-1.92
2023-01-19T15:39:19.479Z,-1.85
2023-01-19T15:42:16.348Z,-1.89
2023-01-19T15:45:33.541Z,-1.92
2023-01-19T15:48:30.387Z,-2.01
2023-01-19T15:51:27.222Z,-2.01
2023-01-19T15:54:24.079Z,-1.92
2023-01-19T15:57:20.974Z,-1.90
2023-01-19T16:00:17.846Z,-1.94
2023-01-19T16:03:14.655Z,-1.87
2023-01-19T16:06:12.803Z,-1.94
2023-01-19T16:09:09.564Z,-1.96
2023-01-19T16:12:06.443Z,-1.98
2023-01-19T16:15:03.270Z,-1.97
2023-01-19T16:18:00.106Z,-2.02
2023-01-19T16:20:56.954Z,-1.97
2023-01-19T16:23:54.101Z,-2.03
2023-01-19T16:26:50.991Z,-1.95
2023-01-19T16:29:47.968Z,-1.93
2023-01-19T16:32:45.328Z,-1.99
2023-01-19T16:35:42.111Z,-1.95
2023-01-19T16:38:38.895Z,-1.92
2023-01-19T16:41:36.229Z,-1.90
2023-01-19T16:44:33.164Z,-1.93
2023-01-19T16:47:30.137Z,-1.95
2023-01-19T16:50:26.913Z,-1.84
2023-01-19T16:53:23.721Z,-1.87
2023-01-19T16:56:20.518Z,-1.83
2023-01-19T16:59:17.659Z,-1.86
2023-01-19T17:02:14.712Z,-1.82
2023-01-19T17:05:11.700Z,-1.92
2023-01-19T17:08:08.657Z,-1.87
2023-01-19T17:11:23.425Z,-1.79
2023-01-19T17:14:20.528Z,-1.86
2023-01-19T17:17:17.504Z,-1.84
2023-01-19T17:20:14.701Z,-1.87
2023-01-19T17:23:11.624Z,-1.83
2023-01-19T17:26:08.859Z,-1.81
2023-01-19T17:29:10.167Z,-1.91
2023-01-19T17:32:06.996Z,-1.81
2023-01-19T17:35:03.901Z,-1.80
2023-01-19T17:38:00.714Z,-1.78
2023-01-19T17:40:57.456Z,-1.85
2023-01-19T17:43:54.535Z,-1.85
2023-01-19T17:46:51.301Z,-1.78
2023-01-19T17:49:48.054Z,-1.69
2023-01-19T17:52:44.934Z,-1.70
2023-01-19T17:55:41.697Z,-1.77
2023-01-19T17:58:39.537Z,-1.76
2023-01-19T18:01:39.829Z,-1.75
2023-01-19T18:04:40.045Z,-1.77
2023-01-19T18:07:36.824Z,-1.80
2023-01-19T18:10:33.698Z,-1.79
2023-01-19T18:13:30.461Z,-1.85
2023-01-19T18:16:30.498Z,-1.85
2023-01-19T18:19:27.305Z,-1.80
2023-01-19T18:22:24.086Z,-1.89
2023-01-19T18:25:20.838Z,-1.81
2023-01-19T18:28:17.866Z,-1.78
2023-01-19T18:31:17.079Z,-1.77
2023-01-19T18:34:13.902Z,-1.80
2023-01-19T18:37:10.746Z,-1.76
2023-01-19T18:40:09.968Z,-1.76
2023-01-19T18:43:08.809Z,-1.77
2023-01-19T18:46:08.247Z,-1.70
2023-01-19T18:49:05.400Z,-1.73
2023-01-19T18:52:03.937Z,-1.74
2023-01-19T18:55:01.168Z,-1.67
2023-01-19T18:57:58.775Z,-1.75
2023-01-19T19:00:56.237Z,-1.75
2023-01-19T19:03:55.000Z,-1.64
2023-01-19T19:06:51.807Z,-1.73
2023-01-19T19:09:48.771Z,-1.71
2023-01-19T19:12:45.636Z,-1.64
2023-01-19T19:15:44.365Z,-1.65
2023-01-19T19:18:41.261Z,-1.68
2023-01-19T19:21:38.327Z,-1.65
2023-01-19T19:24:37.988Z,-1.74
2023-01-19T19:27:35.620Z,-1.72
2023-01-19T19:30:34.560Z,-1.65
2023-01-19T19:33:31.491Z,-1.70
2023-01-19T19:36:28.824Z,-1.66
2023-01-19T19:39:26.187Z,-1.66
2023-01-19T19:42:24.028Z,-1.63
2023-01-19T19:45:20.906Z,-1.59
2023-01-19T19:48:17.804Z,-1.58
2023-01-19T19:51:19.243Z,-1.62
2023-01-19T19:54:16.218Z,-1.60
2023-01-19T19:57:12.977Z,-1.59
2023-01-19T20:00:10.367Z,-1.52
2023-01-19T20:03:13.364Z,-1.55
2023-01-19T20:06:13.547Z,-1.56
2023-01-19T20:09:12.887Z,-1.58
2023-01-19T20:12:10.129Z,-1.60
2023-01-19T20:15:07.231Z,-1.63
2023-01-19T20:18:07.098Z,-1.66
2023-01-19T20:21:13.985Z,-1.61
2023-01-19T20:24:17.619Z,-1.62
2023-01-19T20:27:14.422Z,-1.63
2023-01-19T20:30:12.075Z,-1.64
2023-01-19T20:33:09.026Z,-1.66
2023-01-19T20:36:06.258Z,-1.67
2023-01-19T20:39:10.200Z,-1.63
2023-01-19T20:42:11.171Z,-1.60
2023-01-19T20:45:08.344Z,-1.64
2023-01-19T20:48:05.212Z,-1.65
2023-01-19T20:51:12.718Z,-1.66
2023-01-19T20:54:11.214Z,-1.50
2023-01-19T20:57:07.981Z,-1.55
2023-01-19T21:00:05.298Z,-1.63
2023-01-19T21:03:02.108Z,-1.55
2023-01-19T21:05:59.685Z,-1.63
2023-01-19T21:08:57.500Z,-1.54
2023-01-19T21:11:55.924Z,-1.58
2023-01-19T21:14:54.052Z,-1.54
2023-01-19T21:17:50.851Z,-1.59
2023-01-19T21:20:48.411Z,-1.61
2023-01-19T21:23:46.761Z,-1.56
2023-01-19T21:26:43.620Z,-1.53
2023-01-19T21:29:40.926Z,-1.56
2023-01-19T21:32:37.695Z,-1.51
2023-01-19T21:35:34.490Z,-1.49
2023-01-19T21:38:31.603Z,-1.37
2023-01-19T21:41:29.982Z,-1.54
2023-01-19T21:44:26.854Z,-1.69
2023-01-19T21:47:23.626Z,-1.61
2023-01-19T21:50:20.372Z,-1.62
2023-01-19T21:53:17.141Z,-1.60
2023-01-19T21:56:13.909Z,-1.63
2023-01-19T21:59:17.032Z,-1.66
2023-01-19T22:02:14.578Z,-1.62
2023-01-19T22:05:11.577Z,-1.60
2023-01-19T22:08:08.846Z,-1.57
2023-01-19T22:11:07.301Z,-1.44
2023-01-19T22:14:04.068Z,-1.60
2023-01-19T22:17:00.909Z,-1.60
2023-01-19T22:19:57.679Z,-1.60
2023-01-19T22:22:55.417Z,-1.61
2023-01-19T22:25:52.152Z,-1.52
2023-01-19T22:28:52.366Z,-1.53
2023-01-19T22:31:51.291Z,-1.52
2023-01-19T22:34:48.957Z,-1.38
2023-01-19T22:37:45.722Z,-1.49
2023-01-19T22:40:42.468Z,-1.46
2023-01-19T22:43:39.217Z,-1.53
2023-01-19T22:46:36.898Z,-1.62
2023-01-19T22:49:33.649Z,-1.57
2023-01-19T22:52:30.422Z,-1.60
2023-01-19T22:55:29.613Z,-1.59
2023-01-19T22:58:26.419Z,-1.58
2023-01-19T23:01:44.402Z,-1.56
2023-01-19T23:04:41.294Z,-1.57
2023-01-19T23:07:38.041Z,-1.71
2023-01-19T23:10:38.900Z,-1.59
2023-01-19T23:13:35.797Z,-1.64
2023-01-19T23:16:32.906Z,-1.59
2023-01-19T23:19:29.667Z,-1.47
2023-01-19T23:22:26.437Z,-1.65
2023-01-19T23:25:23.189Z,-1.41
2023-01-19T23:28:19.945Z,-1.55
2023-01-19T23:31:17.721Z,-1.54
2023-01-19T23:34:14.829Z,-1.58
2023-01-19T23:37:11.605Z,-1.58
2023-01-19T23:40:10.253Z,-1.59
2023-01-19T23:43:07.038Z,-1.58
2023-01-19T23:46:04.909Z,-1.56
2023-01-19T23:49:01.685Z,-1.60
2023-01-19T23:51:58.488Z,-1.57
2023-01-19T23:54:55.257Z,-1.64
2023-01-19T23:57:52.021Z,-1.65
